Time;durP1;ratioP1;P1;durP2;ratioP2;P2;SDS_P1;SDS_P2;PMS_P1;PMS_P2;Temp;Humidity;BMP_temperature;BMP_pressure;BME280_temperature;BME280_humidity;BME280_pressure;Samples;Min_cycle;Max_cycle;Signal;HPM_P1;HPM_P2
2021/07/22 00:00:22;;;;;;;3.90;2.58;;;;;;;24.76;45.77;99386.08;1742466;81;21003;-75
2021/07/22 00:02:51;;;;;;;4.00;3.00;;;;;;;24.74;45.87;99380.09;1740248;80;21050;-76
2021/07/22 00:05:18;;;;;;;5.67;2.67;;;;;;;24.73;45.93;99380.65;1809343;77;21502;-76
2021/07/22 00:07:48;;;;;;;3.67;2.87;;;;;;;24.73;45.95;99385.27;1805363;77;21132;-78
2021/07/22 00:10:15;;;;;;;6.40;2.87;;;;;;;24.69;45.99;99386.91;1814288;77;21034;-77
2021/07/22 00:12:42;;;;;;;3.98;2.87;;;;;;;24.66;46.08;99385.52;1808600;77;20998;-77
2021/07/22 00:15:09;;;;;;;3.98;2.67;;;;;;;24.65;46.15;99387.17;1827356;77;21014;-76
2021/07/22 00:17:36;;;;;;;5.08;3.08;;;;;;;24.62;46.27;99394.48;1815615;77;21023;-75
2021/07/22 00:20:05;;;;;;;6.42;2.90;;;;;;;24.61;46.32;99395.56;1811472;77;21074;-75
2021/07/22 00:22:37;;;;;;;4.50;3.05;;;;;;;24.57;46.45;99391.23;1804601;78;20970;-76
2021/07/22 00:25:08;;;;;;;3.72;2.95;;;;;;;24.57;46.46;99395.83;1803187;77;20998;-75
2021/07/22 00:27:35;;;;;;;3.15;2.85;;;;;;;24.55;46.58;99396.64;1793004;77;21033;-75
2021/07/22 00:30:01;;;;;;;3.55;2.75;;;;;;;24.51;46.63;99395.00;1740610;81;21506;-76
2021/07/22 00:32:29;;;;;;;4.50;2.85;;;;;;;24.50;46.71;99398.78;1796009;77;21077;-75
2021/07/22 00:34:57;;;;;;;3.02;2.55;;;;;;;24.48;46.77;99400.95;1800259;77;21552;-76
2021/07/22 00:37:23;;;;;;;5.60;2.95;;;;;;;24.45;46.82;99405.00;1806898;79;21037;-76
2021/07/22 00:39:50;;;;;;;3.77;2.87;;;;;;;24.42;46.95;99402.84;1806423;77;21053;-76
2021/07/22 00:42:16;;;;;;;5.53;3.37;;;;;;;24.41;47.11;99401.74;1738911;81;21082;-76
2021/07/22 00:44:43;;;;;;;3.77;2.92;;;;;;;24.39;47.19;99402.55;1757668;80;21100;-76
2021/07/22 00:47:11;;;;;;;4.75;2.95;;;;;;;24.36;47.30;99402.56;1752304;80;21120;-77
2021/07/22 00:49:38;;;;;;;6.55;3.30;;;;;;;24.34;47.42;99403.37;1762816;80;21065;-76
2021/07/22 00:52:05;;;;;;;6.30;3.45;;;;;;;24.34;47.53;99406.89;1733048;81;21111;-77
2021/07/22 00:54:33;;;;;;;3.83;2.45;;;;;;;24.32;47.60;99410.97;1752959;80;21055;-76
2021/07/22 00:56:59;;;;;;;3.95;3.00;;;;;;;24.30;47.68;99410.41;1762557;80;21549;-77
2021/07/22 00:59:27;;;;;;;3.80;2.50;;;;;;;24.28;47.87;99405.77;1742535;81;20967;-79
2021/07/22 01:01:54;;;;;;;8.03;4.20;;;;;;;24.25;48.00;99405.77;1724980;81;21081;-77
2021/07/22 01:04:21;;;;;;;4.90;3.10;;;;;;;24.24;48.13;99410.10;1741783;82;21003;-78
2021/07/22 01:06:50;;;;;;;6.03;3.05;;;;;;;24.22;48.25;99417.69;1814973;78;20999;-77
2021/07/22 01:11:59;;;;;;;5.62;3.35;;;;;;;24.17;48.56;99415.79;1862340;75;22657;-77
2021/07/22 01:14:26;;;;;;;6.05;3.10;;;;;;;24.07;48.75;99422.55;1788662;80;20983;-76
2021/07/22 01:16:53;;;;;;;6.97;3.27;;;;;;;24.07;48.82;99417.12;1767540;78;21045;-76
2021/07/22 01:19:20;;;;;;;4.22;3.58;;;;;;;24.07;48.84;99427.97;1753132;79;20955;-76
2021/07/22 01:21:48;;;;;;;3.60;3.30;;;;;;;24.04;48.90;99425.22;1770465;78;21067;-78
2021/07/22 01:24:16;;;;;;;6.12;3.10;;;;;;;24.02;48.92;99424.67;1753998;78;21008;-78
2021/07/22 01:26:46;;;;;;;8.15;3.77;;;;;;;24.01;48.90;99428.48;1775137;80;21001;-77
2021/07/22 01:29:17;;;;;;;5.08;3.35;;;;;;;23.99;48.87;99432.00;1764188;80;21086;-77
2021/07/22 01:31:46;;;;;;;5.35;3.20;;;;;;;23.97;48.82;99436.87;1750300;79;21059;-78
2021/07/22 01:34:14;;;;;;;4.67;3.22;;;;;;;23.95;48.81;99434.94;1758812;78;21397;-76
2021/07/22 01:36:40;;;;;;;3.83;3.17;;;;;;;23.94;48.85;99436.03;1774435;78;21005;-77
2021/07/22 01:39:07;;;;;;;3.50;3.15;;;;;;;23.92;48.86;99442.27;1770635;79;21012;-77
2021/07/22 01:41:35;;;;;;;3.33;2.62;;;;;;;23.90;48.89;99441.17;1750459;80;21085;-77
2021/07/22 01:44:03;;;;;;;4.95;2.83;;;;;;;23.89;48.90;99441.42;1765412;78;21075;-77
2021/07/22 01:46:30;;;;;;;3.22;2.65;;;;;;;23.86;48.94;99439.26;1768992;78;20994;-76
2021/07/22 01:48:57;;;;;;;8.05;2.98;;;;;;;23.84;49.04;99442.23;1762081;80;21024;-76
2021/07/22 01:51:24;;;;;;;5.60;3.33;;;;;;;23.83;49.04;99437.87;1761319;78;21554;-76
2021/07/22 01:53:52;;;;;;;5.33;3.20;;;;;;;23.82;48.99;99438.16;1756345;78;21815;-76
2021/07/22 01:56:18;;;;;;;5.45;3.20;;;;;;;23.80;49.00;99438.92;1776806;79;21017;-76
2021/07/22 01:58:45;;;;;;;7.12;2.95;;;;;;;23.77;49.00;99440.80;1785386;78;20996;-77
2021/07/22 02:01:11;;;;;;;4.85;3.20;;;;;;;23.77;49.00;99443.51;1773372;78;21086;-77
2021/07/22 02:03:40;;;;;;;5.35;3.08;;;;;;;23.73;48.93;99446.73;1770966;78;21047;-77
2021/07/22 02:06:12;;;;;;;4.28;2.95;;;;;;;23.72;48.93;99449.19;1783687;78;21469;-76
2021/07/22 02:08:38;;;;;;;5.87;3.17;;;;;;;23.69;49.06;99442.11;1764016;78;21011;-75
2021/07/22 02:11:05;;;;;;;3.40;2.83;;;;;;;23.66;49.01;99447.52;1752513;80;21074;-75
2021/07/22 02:13:33;;;;;;;5.58;3.20;;;;;;;23.66;48.97;99448.88;1730253;80;21061;-74
2021/07/22 02:15:59;;;;;;;4.50;3.00;;;;;;;23.64;49.00;99446.97;1772884;80;21054;-75
2021/07/22 02:18:30;;;;;;;3.10;2.80;;;;;;;23.62;49.03;99448.29;1791187;79;21379;-78
2021/07/22 02:20:58;;;;;;;5.47;3.17;;;;;;;23.59;49.00;99450.99;1820819;77;20983;-77
2021/07/22 02:23:25;;;;;;;3.70;3.05;;;;;;;23.58;49.08;99454.77;1813733;77;21349;-78
2021/07/22 02:25:56;;;;;;;4.12;3.08;;;;;;;23.55;49.08;99449.34;1763568;79;21515;-77
2021/07/22 02:28:22;;;;;;;4.00;3.20;;;;;;;23.54;49.15;99456.38;1746771;79;21024;-77
2021/07/22 02:30:49;;;;;;;9.43;3.85;;;;;;;23.46;49.13;99443.31;1747681;79;21100;-77
2021/07/22 02:33:15;;;;;;;6.10;3.27;;;;;;;23.50;49.12;99452.00;1736671;80;21036;-78
2021/07/22 02:35:42;;;;;;;5.33;3.27;;;;;;;23.49;49.09;99456.36;1801745;77;21002;-76
2021/07/22 02:38:25;;;;;;;5.75;3.05;;;;;;;23.46;49.08;99459.58;1782033;77;20999;-76
2021/07/22 02:40:52;;;;;;;8.25;5.12;;;;;;;23.42;49.03;99461.98;1772652;79;21470;-76
2021/07/22 02:43:19;;;;;;;7.83;5.05;;;;;;;23.41;49.03;99462.23;1750935;79;21137;-77
2021/07/22 02:45:45;;;;;;;7.62;5.30;;;;;;;23.39;48.97;99466.55;1757784;79;21077;-75
2021/07/22 02:48:13;;;;;;;4.70;3.90;;;;;;;;;;1752541;80;21007;-75
2021/07/22 02:50:39;;;;;;;6.42;3.85;;;;;;;23.35;48.80;99472.22;1752015;79;21017;-74
2021/07/22 02:53:07;;;;;;;4.55;3.25;;;;;;;23.34;48.75;99478.19;1761857;79;21094;-73
2021/07/22 02:55:42;;;;;;;3.35;2.92;;;;;;;23.32;48.72;99474.11;1752642;79;21835;-74
2021/07/22 02:58:09;;;;;;;3.95;3.37;;;;;;;23.31;48.64;99481.42;1729203;79;21101;-74
2021/07/22 03:00:37;;;;;;;5.20;3.60;;;;;;;23.29;48.56;99480.84;1758702;79;21014;-74
2021/07/22 03:03:04;;;;;;;6.15;3.20;;;;;;;23.27;48.56;99480.28;1746093;79;21007;-73
2021/07/22 03:05:31;;;;;;;8.20;2.77;;;;;;;23.26;48.54;99487.34;1746971;79;21625;-74
2021/07/22 03:07:59;;;;;;;4.22;3.45;;;;;;;23.24;48.55;99478.11;1750839;79;21146;-73
2021/07/22 03:10:26;;;;;;;3.98;3.20;;;;;;;23.21;48.61;99492.16;1754951;78;21019;-74
2021/07/22 03:12:54;;;;;;;5.72;3.17;;;;;;;23.20;48.64;99498.67;1816655;77;20970;-76
2021/07/22 03:15:24;;;;;;;7.60;4.20;;;;;;;23.20;48.64;99496.47;1810815;77;21505;-77
2021/07/22 03:17:50;;;;;;;3.80;3.33;;;;;;;23.19;48.64;99503.80;1812219;77;21096;-77
2021/07/22 03:20:17;;;;;;;4.70;3.33;;;;;;;23.17;48.57;99507.30;1810192;77;21086;-77
2021/07/22 03:22:48;;;;;;;6.22;3.40;;;;;;;23.16;48.56;99510.55;1806270;77;21073;-73
2021/07/22 03:25:17;;;;;;;4.47;2.95;;;;;;;23.14;48.55;99512.70;1811043;77;21010;-75
2021/07/22 03:27:45;;;;;;;5.25;3.10;;;;;;;23.13;48.59;99511.05;1746843;80;21146;-77
2021/07/22 03:30:15;;;;;;;4.90;2.83;;;;;;;23.11;48.58;99506.98;1744974;79;21037;-76
2021/07/22 03:32:43;;;;;;;4.45;2.95;;;;;;;23.11;48.53;99511.04;1809066;77;21185;-77
2021/07/22 03:35:11;;;;;;;6.12;3.00;;;;;;;23.11;48.49;99517.27;1803982;77;21585;-75
2021/07/22 03:37:37;;;;;;;5.75;3.22;;;;;;;23.10;48.48;99514.81;1754614;80;21043;-76
2021/07/22 03:40:09;;;;;;;5.40;2.92;;;;;;;23.10;48.47;99520.23;1825708;77;21063;-78
2021/07/22 03:42:37;;;;;;;4.40;2.98;;;;;;;23.09;48.47;99514.00;1808935;77;21065;-76
2021/07/22 03:45:14;;;;;;;6.95;3.67;;;;;;;23.10;48.51;99518.36;1781095;77;21109;-77
2021/07/22 03:47:42;;;;;;;15.13;13.38;;;;;;;23.09;48.43;99519.97;1815974;77;21069;-76
2021/07/22 03:50:09;;;;;;;19.17;15.25;;;;;;;23.08;48.43;99518.31;1788161;77;21005;-76
2021/07/22 03:52:40;;;;;;;21.73;17.82;;;;;;;23.08;48.49;99519.67;1802875;77;20970;-77
2021/07/22 03:55:08;;;;;;;13.08;11.50;;;;;;;23.06;48.48;99521.27;1810986;77;21066;-76
2021/07/22 03:57:36;;;;;;;9.78;6.65;;;;;;;23.07;48.49;99522.11;1770059;78;21130;-78
2021/07/22 04:00:04;;;;;;;9.90;5.78;;;;;;;23.07;48.53;99527.53;1828154;77;21084;-78
2021/07/22 04:02:32;;;;;;;9.55;4.22;;;;;;;23.08;48.50;99527.80;1814300;77;20978;-76
2021/07/22 04:05:00;;;;;;;4.33;3.42;;;;;;;23.07;48.50;99525.62;1814923;77;21050;-76
2021/07/22 04:07:27;;;;;;;5.85;3.17;;;;;;;23.09;48.49;99537.03;1820699;77;21073;-75
2021/07/22 04:09:56;;;;;;;5.33;3.15;;;;;;;23.09;48.38;99542.45;1803573;77;21085;-75
2021/07/22 04:12:24;;;;;;;7.55;3.20;;;;;;;23.11;48.22;99532.17;1814363;77;21008;-76
2021/07/22 04:14:55;;;;;;;6.33;2.85;;;;;;;23.12;48.15;99532.47;1784844;77;21124;-76
2021/07/22 04:17:24;;;;;;;6.03;3.15;;;;;;;23.14;48.11;99534.89;1826941;77;21473;-75
2021/07/22 04:20:03;;;;;;;11.03;6.50;;;;;;;23.15;48.12;99531.13;1675395;83;21069;-76
2021/07/22 04:22:50;;;;;;;7.33;4.47;;;;;;;23.16;48.12;99539.55;1813760;77;21073;-77
2021/07/22 04:25:35;;;;;;;7.80;3.70;;;;;;;23.15;48.20;99541.97;1790900;77;21030;-76
2021/07/22 04:28:10;;;;;;;8.68;3.30;;;;;;;23.17;48.19;99539.81;1808656;77;21501;-77
2021/07/22 04:30:38;;;;;;;3.72;2.90;;;;;;;23.20;48.21;99543.37;1801260;77;21038;-77
2021/07/22 04:33:07;;;;;;;3.52;2.95;;;;;;;23.23;48.15;99546.91;1768431;80;21259;-77
2021/07/22 04:35:47;;;;;;;4.22;3.10;;;;;;;23.26;48.08;99548.31;1749716;79;21796;-75
2021/07/22 04:38:18;;;;;;;5.08;2.95;;;;;;;23.26;48.12;99544.25;1776112;79;21033;-76
2021/07/22 04:41:04;;;;;;;4.53;2.35;;;;;;;23.28;48.06;99544.81;1771724;80;21022;-76
2021/07/22 04:43:49;;;;;;;5.58;2.60;;;;;;;23.28;48.05;99545.62;1751628;80;21540;-76
2021/07/22 04:46:34;;;;;;;4.35;2.55;;;;;;;23.30;48.11;99543.47;1746062;79;21074;-76
2021/07/22 04:49:02;;;;;;;4.33;2.70;;;;;;;23.33;48.07;99542.13;1736733;79;21856;-75
2021/07/22 04:51:36;;;;;;;4.58;2.77;;;;;;;23.35;48.02;99540.81;1769032;79;21633;-77
2021/07/22 04:54:04;;;;;;;3.72;2.70;;;;;;;;;;1758643;79;21051;-77
2021/07/22 04:56:31;;;;;;;4.87;3.02;;;;;;;23.40;48.06;99542.73;1775625;79;21054;-78
2021/07/22 04:58:58;;;;;;;5.40;2.80;;;;;;;23.42;48.04;99542.48;1757380;80;20990;-77
2021/07/22 05:01:25;;;;;;;7.08;4.70;;;;;;;23.44;48.10;99543.86;1784253;79;21088;-78
2021/07/22 05:03:52;;;;;;;8.05;4.08;;;;;;;23.47;48.21;99541.16;1809067;77;21013;-77
2021/07/22 05:06:20;;;;;;;7.10;3.50;;;;;;;23.50;48.29;99540.66;1820732;77;21046;-78
2021/07/22 05:08:56;;;;;;;4.85;2.87;;;;;;;23.52;48.23;99547.45;1805408;77;21089;-78
2021/07/22 05:11:27;;;;;;;10.43;2.92;;;;;;;23.53;48.26;99541.51;1803577;77;21021;-76
2021/07/22 05:13:56;;;;;;;4.95;2.85;;;;;;;23.55;48.38;99544.23;1826683;77;21112;-76
2021/07/22 05:16:39;;;;;;;;;;;;;;;23.58;48.50;99543.43;1842377;77;21610;-76
2021/07/22 05:19:23;;;;;;;4.90;2.80;;;;;;;23.59;48.51;99545.89;1806385;77;20169;-76
2021/07/22 05:22:04;;;;;;;5.92;2.77;;;;;;;23.55;48.62;99540.70;1807341;77;21029;-76
2021/07/22 05:24:41;;;;;;;4.00;2.47;;;;;;;23.57;48.71;99538.55;1813174;76;21060;-75
2021/07/22 05:27:15;;;;;;;5.80;3.02;;;;;;;23.61;48.71;99538.86;1832380;77;21134;-76
2021/07/22 05:29:46;;;;;;;5.53;3.70;;;;;;;23.64;48.78;99550.52;1842490;76;21544;-75
2021/07/22 05:32:26;;;;;;;5.53;2.83;;;;;;;23.65;48.82;99544.84;1831904;77;21025;-76
2021/07/22 05:34:54;;;;;;;5.40;2.60;;;;;;;23.67;48.89;99545.95;1802519;78;21070;-77
2021/07/22 05:37:30;;;;;;;6.55;2.72;;;;;;;23.69;48.99;99543.25;1765771;79;21337;-77
2021/07/22 05:39:58;;;;;;;4.80;3.20;;;;;;;23.73;49.09;99552.50;1794593;78;21106;-77
2021/07/22 05:42:24;;;;;;;8.33;5.12;;;;;;;23.75;49.14;99544.92;1769286;79;21058;-77
2021/07/22 05:44:51;;;;;;;6.87;4.08;;;;;;;23.78;49.25;99546.83;1772656;79;21010;-79
2021/07/22 05:47:19;;;;;;;4.75;3.20;;;;;;;23.81;49.35;99555.84;1759153;79;21547;-77
2021/07/22 05:49:46;;;;;;;8.03;3.10;;;;;;;23.83;49.52;99552.33;1771436;80;21052;-78
2021/07/22 05:52:12;;;;;;;4.80;2.70;;;;;;;23.85;49.62;99549.63;1762688;80;21079;-77
2021/07/22 05:54:39;;;;;;;6.67;2.90;;;;;;;23.88;49.75;99546.95;1773968;80;21548;-76
2021/07/22 05:57:05;;;;;;;7.92;3.15;;;;;;;23.90;49.85;99555.10;1758827;79;21089;-75
2021/07/22 05:59:33;;;;;;;5.20;2.70;;;;;;;23.94;49.95;99552.69;1766789;79;21529;-77
2021/07/22 06:02:01;;;;;;;4.30;3.33;;;;;;;23.96;50.06;99551.08;1750118;80;21002;-77
2021/07/22 06:04:27;;;;;;;5.10;2.90;;;;;;;24.00;50.16;99549.47;1791307;79;22313;-77
2021/07/22 06:06:54;;;;;;;6.65;2.90;;;;;;;24.02;50.30;99554.09;1806887;78;21044;-76
2021/07/22 06:09:21;;;;;;;4.03;3.15;;;;;;;24.05;50.37;99557.63;1787900;79;21050;-77
2021/07/22 06:11:47;;;;;;;6.37;3.30;;;;;;;24.07;50.38;99559.02;1778286;79;21026;-79
2021/07/22 06:14:15;;;;;;;4.03;2.85;;;;;;;24.10;50.41;99555.77;1759583;80;21083;-76
2021/07/22 06:16:41;;;;;;;5.20;3.00;;;;;;;24.13;50.46;99559.87;1754963;81;22141;-76
2021/07/22 06:19:09;;;;;;;3.95;2.77;;;;;;;24.15;50.58;99559.06;1767057;79;21003;-76
2021/07/22 06:21:36;;;;;;;4.00;3.05;;;;;;;24.20;50.74;99565.86;1789963;78;21253;-76
2021/07/22 06:24:03;;;;;;;4.90;3.20;;;;;;;24.25;50.83;99566.45;1748893;79;21042;-75
2021/07/22 06:26:34;;;;;;;4.72;2.70;;;;;;;24.29;50.82;99559.41;1765174;79;21079;-76
2021/07/22 06:29:02;;;;;;;3.20;2.60;;;;;;;24.34;50.91;99562.17;1771780;78;21070;-76
2021/07/22 06:31:29;;;;;;;5.20;2.87;;;;;;;24.40;50.78;99560.30;1776883;79;21058;-75
2021/07/22 06:33:56;;;;;;;3.70;3.00;;;;;;;24.43;50.91;99560.56;1802472;78;21018;-76
2021/07/22 06:36:24;;;;;;;4.72;3.10;;;;;;;24.50;51.99;99555.72;1772735;79;21077;-75
2021/07/22 06:38:50;;;;;;;6.08;3.45;;;;;;;24.57;52.35;99563.67;1763887;80;20986;-74
2021/07/22 06:41:21;;;;;;;7.37;3.55;;;;;;;24.63;52.08;99559.08;1776635;79;21264;-72
2021/07/22 06:43:48;;;;;;;26.27;13.65;;;;;;;24.70;53.31;99565.87;1761035;80;21544;-70
2021/07/22 06:46:15;;;;;;;17.90;9.60;;;;;;;24.79;53.90;99569.45;1757608;79;21117;-73
2021/07/22 06:48:41;;;;;;;12.33;6.75;;;;;;;24.85;54.25;99567.83;1772404;80;21119;-73
2021/07/22 06:51:08;;;;;;;10.48;4.67;;;;;;;24.93;54.46;99565.95;1766701;79;20994;-72
2021/07/22 06:53:35;;;;;;;10.45;5.35;;;;;;;25.04;54.46;99566.80;1770446;78;21144;-76
2021/07/22 06:56:04;;;;;;;9.10;5.10;;;;;;;25.11;54.10;99560.58;1763489;79;21045;-73
2021/07/22 06:58:30;;;;;;;7.62;4.25;;;;;;;25.20;53.86;99566.29;1757101;79;21117;-71
2021/07/22 07:00:56;;;;;;;7.35;4.92;;;;;;;25.28;53.80;99561.73;1775167;79;21061;-72
2021/07/22 07:03:23;;;;;;;8.45;5.03;;;;;;;25.36;53.72;99565.80;1776969;78;21497;-73
2021/07/22 07:05:50;;;;;;;7.83;4.40;;;;;;;25.45;53.74;99568.25;1763708;79;21121;-71
2021/07/22 07:08:16;;;;;;;7.47;4.10;;;;;;;25.54;53.61;99571.82;1779186;78;21017;-73
2021/07/22 07:10:43;;;;;;;5.58;3.08;;;;;;;25.61;53.34;99567.74;1778295;78;21485;-75
2021/07/22 07:13:09;;;;;;;8.55;4.28;;;;;;;25.69;53.09;99571.27;1777151;78;21016;-73
2021/07/22 07:15:36;;;;;;;5.33;4.00;;;;;;;25.76;52.98;99580.51;1762587;79;21033;-74
2021/07/22 07:18:04;;;;;;;6.42;4.33;;;;;;;25.83;53.11;99581.61;1782057;78;21854;-72
2021/07/22 07:20:31;;;;;;;8.60;4.40;;;;;;;25.89;53.08;99577.23;1756433;79;21065;-74
2021/07/22 07:22:57;;;;;;;7.05;4.00;;;;;;;25.96;52.93;99578.89;1776227;78;21035;-74
2021/07/22 07:25:24;;;;;;;7.42;3.72;;;;;;;26.03;52.65;99572.63;1779550;78;20995;-73
2021/07/22 07:27:50;;;;;;;5.50;3.20;;;;;;;26.09;52.17;99581.86;1782369;78;21531;-74
2021/07/22 07:30:19;;;;;;;7.22;3.60;;;;;;;26.14;51.92;99576.97;1772320;78;21105;-73
2021/07/22 07:32:49;;;;;;;5.45;3.50;;;;;;;26.21;51.75;99580.75;1759306;79;21559;-71
2021/07/22 07:35:15;;;;;;;4.47;3.50;;;;;;;26.25;51.52;99577.22;1763950;78;21079;-73
2021/07/22 07:37:42;;;;;;;5.72;3.42;;;;;;;26.31;51.31;99582.64;1778080;78;21079;-76
2021/07/22 07:40:10;;;;;;;6.92;3.12;;;;;;;26.37;51.06;99579.64;1771010;79;21095;-74
2021/07/22 07:42:39;;;;;;;4.87;3.65;;;;;;;26.42;50.79;99579.61;1780800;80;21540;-74
2021/07/22 07:45:07;;;;;;;7.37;3.10;;;;;;;26.46;50.65;99577.15;1782581;78;21005;-73
2021/07/22 07:47:34;;;;;;;3.83;3.08;;;;;;;26.52;50.44;99587.48;1782571;78;21055;-70
2021/07/22 07:50:00;;;;;;;4.50;3.40;;;;;;;26.55;50.27;99583.66;1779469;78;21021;-72
2021/07/22 07:52:29;;;;;;;6.97;3.25;;;;;;;26.60;50.02;99585.05;1766572;79;21110;-72
2021/07/22 07:54:56;;;;;;;4.25;2.87;;;;;;;26.64;49.97;99573.05;1776930;78;21120;-70
2021/07/22 07:57:23;;;;;;;6.25;3.30;;;;;;;26.69;49.65;99578.46;1771280;79;21041;-69
2021/07/22 07:59:51;;;;;;;5.03;3.42;;;;;;;26.72;49.81;99571.66;1783473;78;21090;-70
2021/07/22 08:02:17;;;;;;;4.85;3.33;;;;;;;26.77;49.83;99573.81;1762457;79;21517;-69
2021/07/22 08:04:44;;;;;;;6.90;3.92;;;;;;;26.80;50.10;99573.23;1778519;78;21105;-70
2021/07/22 08:07:10;;;;;;;5.72;3.35;;;;;;;26.84;49.93;99574.30;1767444;79;21123;-69
2021/07/22 08:09:37;;;;;;;3.95;3.10;;;;;;;26.88;49.71;99573.20;1774745;78;21020;-68
2021/07/22 08:12:04;;;;;;;3.20;2.90;;;;;;;26.92;49.69;99568.00;1777330;78;21536;-73
2021/07/22 08:14:36;;;;;;;4.97;3.00;;;;;;;26.97;49.76;99563.91;1775218;80;20994;-74
2021/07/22 08:17:00;;;;;;;4.05;3.20;;;;;;;27.01;49.70;99562.23;1771321;80;21012;-72
2021/07/22 08:19:27;;;;;;;5.83;3.30;;;;;;;27.04;49.20;99575.28;1775151;79;21123;-72
2021/07/22 08:21:53;;;;;;;3.25;2.90;;;;;;;27.09;48.93;99569.81;1776571;79;21566;-71
2021/07/22 08:24:19;;;;;;;4.22;3.02;;;;;;;27.12;48.42;99569.27;1772298;80;21084;-68
2021/07/22 08:26:46;;;;;;;3.22;2.83;;;;;;;27.16;48.24;99574.95;1777855;79;21084;-71
2021/07/22 08:29:12;;;;;;;7.17;3.10;;;;;;;27.19;48.10;99572.47;1778996;79;21057;-70
2021/07/22 08:31:38;;;;;;;3.75;2.62;;;;;;;27.23;48.34;99580.35;1777541;80;21118;-75
2021/07/22 08:34:06;;;;;;;7.12;3.20;;;;;;;27.26;48.31;99576.30;1774534;80;21021;-70
2021/07/22 08:36:33;;;;;;;3.98;3.00;;;;;;;27.30;48.26;99569.17;1765493;79;21165;-71
2021/07/22 08:38:59;;;;;;;4.10;3.22;;;;;;;27.34;47.68;99558.52;1766788;80;21065;-70
2021/07/22 08:41:25;;;;;;;4.37;2.77;;;;;;;27.38;47.04;99569.12;1770444;79;21028;-70
2021/07/22 08:43:52;;;;;;;5.70;3.12;;;;;;;27.39;46.53;99568.00;1776468;79;21123;-71
2021/07/22 08:46:18;;;;;;;5.00;2.77;;;;;;;27.41;46.63;99566.64;1768672;79;21049;-68
2021/07/22 08:48:45;;;;;;;3.92;3.10;;;;;;;27.43;46.62;99564.45;1772396;79;21030;-69
2021/07/22 08:51:12;;;;;;;5.08;2.95;;;;;;;27.47;47.02;99572.88;1772359;80;21083;-72
2021/07/22 08:53:39;;;;;;;3.80;3.20;;;;;;;27.50;46.65;99568.20;1765979;79;21624;-70
2021/07/22 08:56:08;;;;;;;4.95;3.02;;;;;;;27.52;46.42;99566.56;1722473;80;21153;-70
2021/07/22 08:58:39;;;;;;;6.78;3.00;;;;;;;27.55;46.19;99568.17;1763907;79;21040;-69
2021/07/22 09:01:08;;;;;;;4.30;3.30;;;;;;;27.59;46.02;99571.14;1757973;80;21080;-69
2021/07/22 09:03:35;;;;;;;4.97;2.90;;;;;;;27.62;45.85;99566.47;1759779;80;21536;-68
2021/07/22 09:06:14;;;;;;;3.35;2.70;;;;;;;27.65;45.34;99572.17;1760803;80;21493;-73
2021/07/22 09:08:41;;;;;;;3.00;2.70;;;;;;;27.68;45.00;99574.90;1720753;80;21728;-66
2021/07/22 09:11:11;;;;;;;3.92;2.80;;;;;;;27.71;44.63;99581.69;1752579;79;21116;-66
2021/07/22 09:13:37;;;;;;;3.77;2.55;;;;;;;27.72;43.84;99575.95;1784894;77;21073;-68
2021/07/22 09:16:04;;;;;;;2.75;2.45;;;;;;;27.75;44.09;99574.55;1827179;77;21077;-66
2021/07/22 09:18:35;;;;;;;4.35;2.90;;;;;;;27.76;44.11;99570.19;1823163;77;21867;-65
2021/07/22 09:21:22;;;;;;;2.80;2.27;;;;;;;27.80;44.05;99572.59;1820918;77;21195;-67
2021/07/22 09:24:08;;;;;;;3.25;3.00;;;;;;;27.82;43.80;99579.95;1826006;77;21041;-65
2021/07/22 09:26:39;;;;;;;3.47;2.30;;;;;;;27.85;43.46;99573.09;1811125;77;21521;-66
2021/07/22 09:29:11;;;;;;;2.90;2.60;;;;;;;27.88;43.65;99578.02;1819284;77;21498;-67
2021/07/22 09:31:37;;;;;;;3.05;2.75;;;;;;;27.90;43.31;99578.55;1803336;77;21037;-65
2021/07/22 09:34:18;;;;;;;4.47;2.47;;;;;;;27.93;43.43;99583.44;1813126;77;21045;-65
2021/07/22 09:36:45;;;;;;;3.55;2.60;;;;;;;27.97;42.85;99579.03;1798379;77;21624;-67
2021/07/22 09:39:24;;;;;;;4.47;2.92;;;;;;;28.00;42.51;99583.09;1811784;77;21073;-64
2021/07/22 09:42:04;;;;;;;2.92;2.27;;;;;;;28.03;42.73;99581.97;1810118;77;21071;-66
2021/07/22 09:44:34;;;;;;;2.65;2.37;;;;;;;28.08;42.92;99583.02;1835465;77;22013;-65
2021/07/22 09:47:02;;;;;;;3.22;2.92;;;;;;;28.10;43.20;99580.25;1834156;76;21066;-65
2021/07/22 09:49:32;;;;;;;3.27;2.85;;;;;;;28.11;43.22;99576.44;1828296;77;20994;-65
2021/07/22 09:52:02;;;;;;;5.08;2.80;;;;;;;28.15;42.20;99579.41;1817487;77;21012;-66
2021/07/22 09:54:36;;;;;;;7.85;2.70;;;;;;;28.16;42.00;99568.20;1834616;77;21087;-63
2021/07/22 09:57:05;;;;;;;9.20;2.55;;;;;;;28.17;41.90;99571.18;1845468;77;20959;-63
2021/07/22 09:59:32;;;;;;;10.93;2.67;;;;;;;28.21;41.83;99572.78;1832681;77;21200;-64
2021/07/22 10:02:04;;;;;;;4.58;2.30;;;;;;;28.24;41.58;99570.85;1822291;77;21029;-66
2021/07/22 10:04:30;;;;;;;2.83;2.17;;;;;;;28.26;41.18;99569.17;1828429;77;20990;-68
2021/07/22 10:07:00;;;;;;;3.95;2.47;;;;;;;28.28;40.59;99567.80;1790896;79;21061;-67
2021/07/22 10:09:30;;;;;;;5.40;2.62;;;;;;;28.31;40.75;99567.20;1817616;77;21599;-66
2021/07/22 10:11:58;;;;;;;3.77;2.33;;;;;;;28.33;40.61;99573.19;1825232;77;21554;-67
2021/07/22 10:14:24;;;;;;;3.40;2.47;;;;;;;28.36;40.29;99568.52;1814786;77;21049;-68
2021/07/22 10:16:51;;;;;;;2.67;2.15;;;;;;;28.36;40.10;99565.79;1803451;77;21140;-68
2021/07/22 10:19:17;;;;;;;4.90;2.92;;;;;;;28.37;39.92;99566.03;1817656;77;21072;-68
2021/07/22 10:21:44;;;;;;;2.55;2.33;;;;;;;28.42;39.56;99574.19;1809870;77;20978;-68
2021/07/22 10:24:11;;;;;;;2.58;2.37;;;;;;;28.46;38.95;99577.71;1844257;77;21118;-67
2021/07/22 10:26:40;;;;;;;2.75;2.40;;;;;;;28.48;38.87;99570.84;1825139;77;21072;-66
2021/07/22 10:29:05;;;;;;;2.37;2.17;;;;;;;28.51;38.62;99579.00;1820019;77;21013;-66
2021/07/22 10:31:34;;;;;;;2.37;2.17;;;;;;;28.53;38.61;99568.09;1820356;77;21036;-67
2021/07/22 10:34:00;;;;;;;2.37;2.10;;;;;;;28.56;38.34;99567.48;1812316;77;20994;-66
2021/07/22 10:36:27;;;;;;;3.85;2.20;;;;;;;28.58;37.97;99563.91;1813473;77;21093;-66
2021/07/22 10:38:53;;;;;;;2.83;2.52;;;;;;;28.61;37.66;99570.73;1830636;77;21017;-66
2021/07/22 10:41:37;;;;;;;2.65;2.45;;;;;;;28.63;37.61;99578.08;1831111;77;21440;-66
2021/07/22 10:44:21;;;;;;;3.60;2.30;;;;;;;28.66;37.46;99572.02;1811982;77;21682;-66
2021/07/22 10:46:54;;;;;;;2.62;2.42;;;;;;;28.69;37.47;99578.27;1821190;76;20990;-66
2021/07/22 10:49:23;;;;;;;2.90;2.35;;;;;;;28.70;37.05;99568.95;1837635;77;21034;-67
2021/07/22 10:51:49;;;;;;;3.65;2.25;;;;;;;28.73;37.08;99572.48;1844608;77;21096;-67
2021/07/22 10:54:44;;;;;;;2.45;2.25;;;;;;;28.75;36.72;99571.63;1823345;77;20995;-66
2021/07/22 10:57:37;;;;;;;2.37;2.00;;;;;;;28.79;36.58;99570.50;1813787;77;21020;-66
2021/07/22 11:00:08;;;;;;;;;;;;;;;28.81;36.42;99567.72;1826681;77;21525;-66
2021/07/22 11:02:47;;;;;;;3.12;2.17;;;;;;;28.82;36.04;99563.89;1813563;77;21100;-68
2021/07/22 11:05:28;;;;;;;2.77;2.12;;;;;;;28.78;36.22;99565.59;1819837;77;21041;-67
2021/07/22 11:08:21;;;;;;;2.70;2.50;;;;;;;28.82;35.93;99556.25;1810866;77;21025;-67
2021/07/22 11:11:03;;;;;;;2.33;2.13;;;;;;;28.85;35.98;99565.22;1813283;77;21522;-68
2021/07/22 11:13:41;;;;;;;3.08;2.77;;;;;;;28.88;35.68;99556.44;1824999;77;21945;-67
2021/07/22 11:16:26;;;;;;;2.35;2.15;;;;;;;28.92;35.55;99562.14;1818725;77;21136;-68
2021/07/22 11:19:00;;;;;;;2.58;2.37;;;;;;;28.95;35.84;99567.00;1831110;77;21541;-67
2021/07/22 11:21:33;;;;;;;2.47;2.20;;;;;;;29.00;35.41;99566.94;1820830;77;21359;-66
2021/07/22 11:24:19;;;;;;;2.92;2.20;;;;;;;29.02;35.52;99565.52;1826526;77;21005;-67
2021/07/22 11:26:43;;;;;;;4.25;2.40;;;;;;;29.06;35.35;99565.75;1817223;77;22246;-68
2021/07/22 11:29:10;;;;;;;2.42;2.22;;;;;;;29.09;34.99;99567.91;1836340;77;21843;-68
2021/07/22 11:31:43;;;;;;;2.33;2.10;;;;;;;29.12;34.88;99549.55;1824543;77;21022;-67
2021/07/22 11:34:10;;;;;;;5.03;2.40;;;;;;;29.14;34.81;99561.01;1844823;77;21449;-67
2021/07/22 11:36:37;;;;;;;4.17;2.52;;;;;;;29.16;34.67;99561.52;1831184;77;21055;-67
2021/07/22 11:39:04;;;;;;;2.15;1.95;;;;;;;29.19;34.82;99569.14;1826521;77;21017;-67
2021/07/22 11:41:30;;;;;;;3.62;2.10;;;;;;;29.22;34.73;99560.89;1848362;77;21758;-70
2021/07/22 11:43:58;;;;;;;3.67;2.50;;;;;;;29.26;34.73;99563.85;1827582;77;21099;-70
2021/07/22 11:46:44;;;;;;;6.85;2.35;;;;;;;29.30;34.61;99562.15;1819721;77;21080;-68